KLWT/LWT METAR and TAF weather

Enter ICAO airport designator
Station Type Date Time Source
KLWT METAR 2021/05/15 00:54 UTC NOAA

KLWT 150054Z AUTO 04004KT 10SM CLR 16/02 A3007 RMK AO2 SLP173 T01610017


Station Type Date Time Source
KLWT Decoded METAR 2021/05/15 00:54 UTC NOAA

LEWISTOWN MUNICIPAL AIRPORT , MT, United States (KLWT) 47-03N 109-27W
May 14, 2021 - 08:54 PM EDT / 2021.05.15 0054 UTC
Wind: from the NE (040 degrees) at 5 MPH (4 KT):0
Visibility: 10 mile(s):0
Sky conditions: clear
Temperature: 61.0 F (16.1 C)
Dew Point: 35.1 F (1.7 C)
Relative Humidity: 37%
Pressure (altimeter): 30.07 in. Hg (1018 hPa)
ob: KLWT 150054Z AUTO 04004KT 10SM CLR 16/02 A3007 RMK AO2 SLP173 T01610017
cycle: 1

Station Type Date Time Source
KLWT TAF 2021/05/14 18:24 UTC NOAA

TAF KLWT 141723Z 1418/1518 VRB06KT P6SM VCSH SCT080 BKN120
TEMPO 1419/1422 VRB08G15KT 6SM -TSRA BKN060CB
FM150000 01010KT P6SM FEW090 SCT150

Example: see airport list